createdAt,value
2018-07-10T05:45:17.643Z,19.78
2018-07-10T05:46:15.882Z,19.97
2018-07-10T05:48:10.639Z,20.18
2018-07-10T05:50:24.038Z,20.29
2018-07-10T05:51:24.561Z,20.41
2018-07-10T05:53:17.106Z,20.27
2018-07-10T05:54:16.584Z,20.19
2018-07-10T05:56:10.065Z,20.12
2018-07-10T05:57:09.783Z,20.18
2018-07-10T05:59:02.710Z,20.14
2018-07-10T06:00:02.576Z,20.11
2018-07-10T06:01:57.273Z,19.96
2018-07-10T06:02:57.927Z,19.81
2018-07-10T06:04:51.066Z,19.64
2018-07-10T06:05:50.642Z,19.54
2018-07-10T06:07:42.198Z,19.42
2018-07-10T06:08:42.145Z,19.53
2018-07-10T06:10:35.579Z,19.50
2018-07-10T06:11:35.570Z,19.50
2018-07-10T06:13:31.023Z,19.59
2018-07-10T06:14:30.503Z,19.50
2018-07-10T06:16:21.417Z,19.45
2018-07-10T06:17:22.645Z,19.37
2018-07-10T06:19:15.410Z,19.39
2018-07-10T06:20:14.985Z,19.52
2018-07-10T06:22:10.175Z,19.64
2018-07-10T06:23:10.196Z,19.71
2018-07-10T06:25:01.918Z,19.79
2018-07-10T06:26:01.928Z,19.74
2018-07-10T06:27:55.291Z,19.74
2018-07-10T06:28:54.985Z,19.74
2018-07-10T06:30:50.311Z,19.77
2018-07-10T06:31:50.297Z,20.00
2018-07-10T06:33:42.343Z,19.90
2018-07-10T06:34:41.963Z,19.94
2018-07-10T06:36:35.230Z,19.93
2018-07-10T06:37:35.326Z,19.97
2018-07-10T06:39:31.309Z,20.08
2018-07-10T06:40:29.211Z,20.27
2018-07-10T06:42:23.144Z,20.53
2018-07-10T06:43:22.557Z,20.55
2018-07-10T06:45:15.856Z,20.48
2018-07-10T06:46:15.436Z,20.44
2018-07-10T06:48:09.794Z,20.95
2018-07-10T06:49:09.755Z,21.25
2018-07-10T06:51:03.661Z,21.04
2018-07-10T06:52:03.359Z,20.88
2018-07-10T06:53:57.596Z,20.63
2018-07-10T06:54:56.433Z,20.56
2018-07-10T06:56:50.479Z,20.53
2018-07-10T06:57:50.372Z,21.01
2018-07-10T06:59:43.826Z,21.04
2018-07-10T07:00:43.831Z,21.00
2018-07-10T07:02:38.732Z,21.20
2018-07-10T07:03:37.064Z,22.00
2018-07-10T07:05:30.053Z,21.58
2018-07-10T07:06:30.425Z,21.53
2018-07-10T07:08:23.878Z,21.30
2018-07-10T07:09:23.394Z,21.19
2018-07-10T07:11:17.104Z,21.18
2018-07-10T07:12:17.197Z,21.05
2018-07-10T07:14:11.534Z,21.04
2018-07-10T07:15:11.168Z,20.95
2018-07-10T07:17:05.547Z,20.89
2018-07-10T07:18:12.402Z,20.98
2018-07-10T07:20:05.985Z,20.88
2018-07-10T07:22:20.614Z,20.64
2018-07-10T07:23:19.807Z,20.73
2018-07-10T07:25:13.324Z,20.82
2018-07-10T07:26:12.878Z,20.82
2018-07-10T07:28:07.007Z,21.88
2018-07-10T07:29:06.629Z,21.96
2018-07-10T07:31:01.498Z,22.56
2018-07-10T07:32:00.937Z,22.43
2018-07-10T07:33:54.392Z,22.30
2018-07-10T07:34:54.368Z,22.15
2018-07-10T07:36:51.248Z,22.06
2018-07-10T07:37:47.751Z,21.97
2018-07-10T07:39:42.738Z,21.80
2018-07-10T07:40:41.043Z,21.77
2018-07-10T07:42:34.494Z,21.74
2018-07-10T07:43:35.999Z,21.66
2018-07-10T07:45:28.592Z,21.90
2018-07-10T07:46:29.125Z,22.04
2018-07-10T07:48:24.425Z,22.19
2018-07-10T07:49:21.286Z,22.06
2018-07-10T07:51:15.033Z,21.93
2018-07-10T07:52:14.864Z,21.69
2018-07-10T07:54:08.660Z,21.51
2018-07-10T07:55:08.118Z,21.53
2018-07-10T07:57:02.084Z,21.37
2018-07-10T07:58:01.417Z,21.32
2018-07-10T07:59:54.515Z,21.22
2018-07-10T08:00:56.611Z,21.23
2018-07-10T08:02:47.757Z,21.34
2018-07-10T08:03:48.319Z,21.38
2018-07-10T08:05:41.669Z,21.26
2018-07-10T08:06:42.158Z,21.14
2018-07-10T08:08:34.776Z,20.89
2018-07-10T08:09:34.137Z,20.77
2018-07-10T08:11:28.577Z,20.79
2018-07-10T08:12:28.050Z,20.64
2018-07-10T08:14:21.143Z,20.64
2018-07-10T08:15:20.823Z,20.60
2018-07-10T08:17:15.501Z,20.50
2018-07-10T08:18:14.191Z,20.39
2018-07-10T08:20:07.759Z,20.26
2018-07-10T08:21:07.955Z,20.27
2018-07-10T08:23:01.271Z,19.96
2018-07-10T08:24:00.877Z,20.09
2018-07-10T08:25:54.591Z,20.07
2018-07-10T08:26:54.467Z,20.18
2018-07-10T08:28:49.197Z,20.25
2018-07-10T08:29:48.298Z,20.30
2018-07-10T08:31:42.246Z,20.41
2018-07-10T08:32:41.560Z,20.61
2018-07-10T08:34:35.847Z,20.82
2018-07-10T08:35:34.653Z,20.83
2018-07-10T08:37:30.342Z,20.75
2018-07-10T08:38:28.744Z,20.68
2018-07-10T08:40:23.171Z,20.92
2018-07-10T08:41:22.142Z,20.93
2018-07-10T08:43:15.470Z,21.23
2018-07-10T08:44:15.423Z,21.51
2018-07-10T08:46:08.842Z,21.78
2018-07-10T08:47:08.926Z,21.84
2018-07-10T08:49:02.535Z,21.67
2018-07-10T08:50:01.493Z,21.74
2018-07-10T08:51:55.387Z,21.45
2018-07-10T08:52:55.247Z,21.29
2018-07-10T08:54:48.384Z,21.03
2018-07-10T08:55:48.893Z,21.08
2018-07-10T08:57:42.696Z,21.20
2018-07-10T08:58:44.756Z,21.16
2018-07-10T09:00:34.714Z,21.23
2018-07-10T09:01:33.800Z,21.18
2018-07-10T09:03:27.631Z,21.45
2018-07-10T09:04:27.225Z,21.47
2018-07-10T09:06:21.037Z,21.66
2018-07-10T09:07:21.006Z,21.80
2018-07-10T09:09:17.354Z,21.88
2018-07-10T09:10:13.549Z,22.15
2018-07-10T09:12:09.199Z,22.13
2018-07-10T09:13:08.337Z,22.16
2018-07-10T09:15:05.694Z,22.19
2018-07-10T09:16:03.513Z,22.25
2018-07-10T09:17:56.119Z,22.37
2018-07-10T09:18:54.871Z,22.43
2018-07-10T09:20:48.644Z,22.74
2018-07-10T09:21:48.207Z,22.86
2018-07-10T09:23:41.582Z,22.93
2018-07-10T09:24:41.595Z,22.88
2018-07-10T09:26:35.312Z,23.03
2018-07-10T09:27:35.277Z,23.04
2018-07-10T09:29:28.715Z,23.01
2018-07-10T09:30:28.426Z,23.29
2018-07-10T09:32:21.593Z,23.49
2018-07-10T09:33:21.254Z,23.63
2018-07-10T09:35:14.834Z,23.86
2018-07-10T09:36:14.791Z,24.06
2018-07-10T09:38:07.774Z,24.25
2018-07-10T09:39:07.529Z,24.34
2018-07-10T09:41:01.354Z,24.36
2018-07-10T09:42:00.928Z,24.44
2018-07-10T09:43:54.701Z,24.55
2018-07-10T09:44:54.340Z,24.38
2018-07-10T09:46:47.792Z,24.43
2018-07-10T09:47:47.738Z,24.06
2018-07-10T09:49:41.144Z,23.94
2018-07-10T09:50:40.718Z,23.97
2018-07-10T09:52:33.950Z,23.84
2018-07-10T09:53:33.596Z,23.69
2018-07-10T09:55:26.564Z,23.51
2018-07-10T09:56:26.638Z,23.64
2018-07-10T09:58:20.331Z,23.63
2018-07-10T09:59:19.916Z,23.54
2018-07-10T10:01:13.376Z,23.46
2018-07-10T10:02:13.293Z,23.59
2018-07-10T10:04:06.681Z,23.66
2018-07-10T10:05:06.688Z,23.74
2018-07-10T10:07:07.961Z,23.92
2018-07-10T10:08:07.898Z,23.98
2018-07-10T10:09:52.987Z,24.13
2018-07-10T10:10:52.953Z,24.26
2018-07-10T10:12:45.863Z,24.19
2018-07-10T10:13:46.148Z,24.18
2018-07-10T10:15:39.454Z,23.85
2018-07-10T10:16:39.228Z,23.85
2018-07-10T10:18:32.181Z,23.85
2018-07-10T10:19:32.119Z,23.78
2018-07-10T10:21:25.057Z,23.70
2018-07-10T10:22:25.024Z,23.67
2018-07-10T10:24:18.433Z,23.52
2018-07-10T10:25:18.416Z,23.41
2018-07-10T10:27:11.879Z,23.42
2018-07-10T10:28:11.791Z,23.21
2018-07-10T10:30:06.717Z,23.18
2018-07-10T10:31:05.667Z,23.33
2018-07-10T10:33:00.027Z,23.13
2018-07-10T10:33:59.344Z,23.18
2018-07-10T10:35:52.304Z,23.22
2018-07-10T10:36:52.003Z,23.01
2018-07-10T10:38:45.573Z,23.06
2018-07-10T10:39:45.333Z,23.17
2018-07-10T10:41:38.789Z,23.13
2018-07-10T10:42:38.747Z,23.29
2018-07-10T10:44:32.517Z,23.44
2018-07-10T10:45:32.111Z,23.69
2018-07-10T10:47:25.108Z,23.78
2018-07-10T10:48:26.891Z,23.79
2018-07-10T10:50:18.228Z,23.64
2018-07-10T10:51:17.897Z,23.42
2018-07-10T10:53:11.264Z,23.45
2018-07-10T10:54:11.456Z,23.41
2018-07-10T10:56:04.991Z,23.36
2018-07-10T10:57:04.189Z,23.17
2018-07-10T10:58:57.236Z,23.13
2018-07-10T10:59:57.215Z,23.22
2018-07-10T11:01:51.013Z,23.56
2018-07-10T11:02:50.614Z,23.55
2018-07-10T11:04:44.033Z,23.48
2018-07-10T11:05:43.973Z,23.48
2018-07-10T11:07:39.452Z,23.44
2018-07-10T11:08:38.302Z,23.49
2018-07-10T11:10:31.654Z,23.48
2018-07-10T11:11:31.345Z,23.15
2018-07-10T11:13:25.712Z,22.91
2018-07-10T11:14:24.702Z,22.80
2018-07-10T11:16:18.060Z,22.62
2018-07-10T11:17:17.646Z,22.59
2018-07-10T11:19:11.949Z,22.70
2018-07-10T11:20:11.577Z,22.66
2018-07-10T11:22:06.262Z,22.88
2018-07-10T11:23:05.514Z,22.86
2018-07-10T11:24:59.770Z,23.08
2018-07-10T11:25:58.769Z,23.15
2018-07-10T11:27:53.457Z,22.92
2018-07-10T11:28:53.197Z,22.76
2018-07-10T11:30:46.779Z,22.80
2018-07-10T11:31:45.895Z,22.77
2018-07-10T11:33:41.766Z,22.56
2018-07-10T11:34:40.302Z,22.71
2018-07-10T11:36:34.173Z,22.59
2018-07-10T11:37:33.692Z,22.52
2018-07-10T11:39:27.592Z,22.52
2018-07-10T11:40:27.423Z,22.51
2018-07-10T11:42:22.403Z,22.49
2018-07-10T11:43:21.805Z,22.62
2018-07-10T11:45:15.245Z,22.71
2018-07-10T11:46:13.971Z,22.53
2018-07-10T11:48:09.023Z,22.34
2018-07-10T11:49:07.342Z,22.40
2018-07-10T11:51:01.344Z,22.38
2018-07-10T11:52:00.653Z,22.38
2018-07-10T11:53:54.172Z,22.43
2018-07-10T11:54:53.749Z,22.37
2018-07-10T11:56:48.128Z,22.56
2018-07-10T11:57:48.109Z,22.80
2018-07-10T11:59:45.220Z,22.86
2018-07-10T12:00:40.533Z,23.01
2018-07-10T12:02:34.915Z,23.11
2018-07-10T12:03:33.980Z,23.06
2018-07-10T12:05:27.737Z,23.23
2018-07-10T12:06:27.674Z,23.28
2018-07-10T12:08:21.159Z,23.22
2018-07-10T12:09:21.049Z,23.13
2018-07-10T12:11:36.580Z,23.14
2018-07-10T12:12:14.047Z,23.11
2018-07-10T12:14:07.684Z,23.14
2018-07-10T12:15:07.409Z,23.23
2018-07-10T12:17:00.383Z,23.28
2018-07-10T12:17:59.978Z,23.21
2018-07-10T12:19:53.768Z,23.01
2018-07-10T12:20:53.445Z,22.93
2018-07-10T12:22:48.209Z,23.07
2018-07-10T12:23:47.212Z,22.98
2018-07-10T12:25:40.773Z,22.73
2018-07-10T12:26:39.974Z,22.67
2018-07-10T12:28:33.766Z,22.55
2018-07-10T12:29:32.942Z,22.44
2018-07-10T12:31:30.414Z,22.44
2018-07-10T12:32:28.893Z,22.51
2018-07-10T12:34:21.096Z,22.44
2018-07-10T12:35:20.921Z,22.15
2018-07-10T12:37:24.291Z,22.19
2018-07-10T12:38:24.217Z,22.31
2018-07-10T12:40:18.150Z,22.49
2018-07-10T12:41:18.542Z,22.58
2018-07-10T12:43:11.317Z,22.31
2018-07-10T12:44:11.254Z,22.27
2018-07-10T12:46:04.635Z,22.43
2018-07-10T12:47:04.203Z,22.46
2018-07-10T12:48:57.989Z,22.36
2018-07-10T12:49:57.625Z,22.28
2018-07-10T12:51:52.940Z,22.49
2018-07-10T12:52:51.888Z,22.55
2018-07-10T12:54:44.817Z,22.66
2018-07-10T12:55:43.905Z,22.73
2018-07-10T12:57:37.650Z,22.88
2018-07-10T12:58:37.875Z,23.03
2018-07-10T13:00:31.515Z,22.85
2018-07-10T13:01:31.035Z,23.03
2018-07-10T13:03:24.463Z,23.08
2018-07-10T13:04:24.422Z,22.96
2018-07-10T13:06:19.258Z,23.04
2018-07-10T13:07:17.970Z,22.85
2018-07-10T13:09:18.238Z,22.92
2018-07-10T13:10:18.182Z,22.89
2018-07-10T13:12:12.737Z,23.03
2018-07-10T13:13:11.134Z,22.98
2018-07-10T13:15:05.018Z,22.99
2018-07-10T13:16:04.610Z,22.96
2018-07-10T13:17:58.884Z,22.96
2018-07-10T13:18:58.342Z,22.99
2018-07-10T13:20:51.776Z,22.98
2018-07-10T13:21:51.492Z,22.95
2018-07-10T13:23:55.458Z,22.81
2018-07-10T13:24:44.878Z,22.62
2018-07-10T13:26:38.835Z,22.61
2018-07-10T13:27:39.360Z,22.71
2018-07-10T13:29:39.332Z,22.59
2018-07-10T13:30:39.335Z,22.55
2018-07-10T13:32:33.586Z,22.58
2018-07-10T13:33:32.691Z,22.61
2018-07-10T13:35:27.044Z,22.36
2018-07-10T13:36:26.690Z,22.12
2018-07-10T13:38:23.043Z,21.80
2018-07-10T13:39:19.946Z,21.78
2018-07-10T13:41:13.592Z,21.77
2018-07-10T13:42:13.849Z,21.74
2018-07-10T13:44:07.324Z,21.88
2018-07-10T13:45:06.873Z,22.00
2018-07-10T13:47:06.794Z,21.66
2018-07-10T13:48:06.714Z,21.74
2018-07-10T13:50:00.493Z,21.59
2018-07-10T13:51:00.129Z,21.62
2018-07-10T13:52:53.951Z,21.59
2018-07-10T13:53:53.893Z,21.59
2018-07-10T13:55:47.235Z,21.63
2018-07-10T13:56:46.959Z,21.65
2018-07-10T13:58:42.839Z,21.66
2018-07-10T13:59:41.211Z,21.81
2018-07-10T14:01:35.046Z,22.06
2018-07-10T14:02:35.543Z,22.15
2018-07-10T14:04:28.480Z,22.31
2018-07-10T14:05:28.377Z,22.37
2018-07-10T14:07:21.794Z,22.62
2018-07-10T14:08:21.795Z,22.81
2018-07-10T14:10:14.803Z,22.80
2018-07-10T14:11:14.380Z,22.88
2018-07-10T14:13:08.732Z,23.08
2018-07-10T14:14:08.145Z,23.15
2018-07-10T14:16:01.570Z,23.33
2018-07-10T14:17:02.598Z,23.23
2018-07-10T14:19:02.001Z,23.23
2018-07-10T14:20:01.847Z,23.36
2018-07-10T14:21:55.227Z,23.28
2018-07-10T14:22:54.987Z,23.18
2018-07-10T14:24:58.730Z,23.45
2018-07-10T14:25:48.357Z,23.45
2018-07-10T14:27:46.671Z,23.44
2018-07-10T14:28:41.669Z,23.54
2018-07-10T14:30:34.738Z,23.42
2018-07-10T14:31:34.624Z,23.45
2018-07-10T14:33:28.560Z,23.49
2018-07-10T14:34:28.750Z,23.42
2018-07-10T14:36:21.649Z,23.48
2018-07-10T14:37:22.051Z,23.60
2018-07-10T14:39:15.060Z,23.52
2018-07-10T14:40:15.016Z,23.51
2018-07-10T14:42:08.464Z,23.49
2018-07-10T14:43:08.335Z,23.45
2018-07-10T14:45:02.034Z,23.49
2018-07-10T14:46:02.434Z,23.46
2018-07-10T14:47:58.730Z,23.42
2018-07-10T14:48:55.230Z,23.51
2018-07-10T14:50:48.646Z,23.51
2018-07-10T14:51:47.713Z,23.46
2018-07-10T14:53:42.446Z,23.41
2018-07-10T14:54:43.731Z,23.36
2018-07-10T14:56:37.097Z,23.41
2018-07-10T14:57:35.632Z,23.37
2018-07-10T14:59:29.158Z,23.22
2018-07-10T15:00:28.812Z,23.18
2018-07-10T15:02:23.703Z,23.41
2018-07-10T15:03:22.682Z,23.48
2018-07-10T15:05:16.580Z,23.46
2018-07-10T15:06:15.974Z,23.42
2018-07-10T15:08:09.665Z,23.41
2018-07-10T15:09:09.195Z,23.25
2018-07-10T15:11:02.515Z,23.11
2018-07-10T15:12:02.501Z,23.10
2018-07-10T15:13:55.548Z,22.93
2018-07-10T15:14:55.714Z,23.01
2018-07-10T15:16:56.931Z,22.99
2018-07-10T15:17:50.751Z,22.99
2018-07-10T15:19:44.623Z,22.93
2018-07-10T15:20:44.271Z,22.99
2018-07-10T15:22:37.848Z,23.01
2018-07-10T15:23:37.026Z,22.91
2018-07-10T15:25:31.506Z,22.93
2018-07-10T15:26:30.989Z,22.88
2018-07-10T15:28:23.811Z,22.91
2018-07-10T15:29:23.873Z,22.86
2018-07-10T15:31:17.754Z,22.81
2018-07-10T15:32:19.427Z,22.73
2018-07-10T15:34:10.677Z,22.74
2018-07-10T15:35:10.205Z,22.64
2018-07-10T15:37:06.972Z,22.59
2018-07-10T15:38:05.165Z,22.70
2018-07-10T15:39:57.987Z,22.77
2018-07-10T15:40:57.630Z,22.71
2018-07-10T15:42:52.482Z,22.66
2018-07-10T15:43:50.819Z,22.71
2018-07-10T15:45:43.872Z,22.40
2018-07-10T15:46:51.767Z,22.43
2018-07-10T15:48:37.700Z,22.46
2018-07-10T15:49:37.131Z,22.49
2018-07-10T15:51:31.526Z,22.53
2018-07-10T15:52:31.387Z,22.52
2018-07-10T15:54:24.317Z,22.56
2018-07-10T15:55:23.897Z,22.56
2018-07-10T15:57:17.844Z,22.64
2018-07-10T15:58:18.745Z,22.66
2018-07-10T16:00:10.257Z,22.68
2018-07-10T16:01:09.767Z,22.78
2018-07-10T16:03:03.480Z,22.95
2018-07-10T16:04:03.139Z,22.95
2018-07-10T16:05:56.661Z,22.92
2018-07-10T16:06:56.710Z,22.89
2018-07-10T16:08:49.722Z,22.86
2018-07-10T16:09:49.647Z,22.89
2018-07-10T16:11:43.114Z,22.76
2018-07-10T16:12:43.199Z,22.85
2018-07-10T16:14:36.456Z,22.58
2018-07-10T16:15:36.442Z,22.55
2018-07-10T16:17:30.745Z,22.56
2018-07-10T16:18:29.252Z,22.51
2018-07-10T16:20:22.703Z,22.66
2018-07-10T16:21:22.455Z,22.58
2018-07-10T16:23:16.395Z,22.48
2018-07-10T16:24:15.929Z,22.49
2018-07-10T16:26:12.271Z,22.44
2018-07-10T16:27:10.769Z,22.34
2018-07-10T16:29:03.883Z,22.21
2018-07-10T16:30:03.255Z,22.31
2018-07-10T16:31:57.088Z,22.25
2018-07-10T16:32:56.690Z,22.15
2018-07-10T16:34:49.611Z,22.13
2018-07-10T16:35:49.532Z,22.19
2018-07-10T16:37:43.946Z,22.19
2018-07-10T16:38:43.002Z,22.16
2018-07-10T16:40:37.010Z,22.12
2018-07-10T16:41:36.765Z,22.13
2018-07-10T16:43:30.586Z,22.06
2018-07-10T16:44:30.702Z,22.06
2018-07-10T16:46:23.330Z,22.06
2018-07-10T16:47:23.308Z,21.93
2018-07-10T16:49:19.771Z,22.13
2018-07-10T16:50:17.201Z,22.04
2018-07-10T16:52:10.041Z,22.25
2018-07-10T16:53:11.568Z,22.30
2018-07-10T16:55:03.541Z,22.33
2018-07-10T16:56:02.902Z,22.28
2018-07-10T16:57:56.380Z,22.30
2018-07-10T16:58:55.881Z,22.25
2018-07-10T17:00:55.415Z,22.09
2018-07-10T17:01:54.230Z,22.01
2018-07-10T17:03:47.594Z,21.98
2018-07-10T17:04:47.542Z,22.03
2018-07-10T17:06:41.071Z,21.97
2018-07-10T17:07:40.584Z,21.94
2018-07-10T17:09:33.439Z,21.81
2018-07-10T17:10:33.432Z,21.75
2018-07-10T17:12:27.207Z,21.78
2018-07-10T17:13:27.436Z,21.88
2018-07-10T17:15:22.066Z,22.13
2018-07-10T17:16:21.761Z,22.27
2018-07-10T17:18:13.923Z,22.34
2018-07-10T17:19:13.595Z,22.33
2018-07-10T17:21:07.190Z,22.28
2018-07-10T17:22:07.164Z,22.34
2018-07-10T17:24:00.738Z,22.19
2018-07-10T17:24:59.799Z,22.18
2018-07-10T17:26:54.191Z,22.13
2018-07-10T17:27:54.138Z,22.12
2018-07-10T17:29:49.547Z,21.94
2018-07-10T17:30:47.569Z,21.80
2018-07-10T17:32:41.105Z,21.75
2018-07-10T17:33:41.031Z,21.73
2018-07-10T17:35:34.360Z,21.62
2018-07-10T17:36:33.638Z,21.66
2018-07-10T17:38:28.847Z,21.47
2018-07-10T17:39:27.100Z,21.43
2018-07-10T17:41:26.170Z,21.23
2018-07-10T17:42:23.905Z,21.19
2018-07-10T17:44:15.558Z,21.08
2018-07-10T17:45:15.143Z,21.10
2018-07-10T17:47:07.871Z,21.11
2018-07-10T17:48:07.806Z,21.04
2018-07-10T17:50:05.668Z,21.04
2018-07-10T17:51:02.258Z,21.03
2018-07-10T17:53:00.247Z,20.93
2018-07-10T17:53:59.643Z,20.77
2018-07-10T17:55:53.551Z,20.85
2018-07-10T17:56:53.494Z,20.86
2018-07-10T17:58:47.988Z,20.85
2018-07-10T17:59:46.500Z,20.82
2018-07-10T18:01:40.517Z,20.83
2018-07-10T18:02:42.388Z,20.80
2018-07-10T18:04:38.560Z,20.86
2018-07-10T18:05:33.007Z,20.85
2018-07-10T18:07:26.986Z,20.85
2018-07-10T18:08:25.513Z,20.85
2018-07-10T18:10:20.055Z,20.90
2018-07-10T18:11:19.667Z,20.83
2018-07-10T18:13:15.069Z,20.82
2018-07-10T18:14:13.217Z,20.82
2018-07-10T18:16:07.243Z,20.79
2018-07-10T18:17:07.446Z,20.83
2018-07-10T18:18:59.948Z,20.83
2018-07-10T18:20:02.523Z,20.86
2018-07-10T18:21:55.047Z,20.85
2018-07-10T18:22:54.603Z,20.86
2018-07-10T18:24:47.596Z,20.95
2018-07-10T18:27:03.010Z,21.03
2018-07-10T18:28:01.133Z,20.98
2018-07-10T18:29:54.371Z,21.03
2018-07-10T18:30:54.170Z,21.08
2018-07-10T18:32:48.312Z,21.11
2018-07-10T18:33:48.332Z,21.07
2018-07-10T18:35:51.180Z,20.97
2018-07-10T18:38:34.226Z,20.86
2018-07-10T18:40:49.896Z,20.93
2018-07-10T18:41:48.745Z,20.90
2018-07-10T18:43:41.476Z,20.85
2018-07-10T18:44:41.877Z,20.83
2018-07-10T18:46:34.181Z,21.01
2018-07-10T18:47:33.293Z,21.14
2018-07-10T18:49:27.156Z,21.10
2018-07-10T18:50:26.662Z,21.01
2018-07-10T18:52:21.368Z,20.42
2018-07-10T18:53:21.331Z,20.26
2018-07-10T18:55:15.963Z,19.96
2018-07-10T18:56:15.097Z,19.90
2018-07-10T18:58:07.911Z,19.81
2018-07-10T18:59:07.434Z,19.67
2018-07-10T19:01:04.322Z,19.34
2018-07-10T19:03:57.830Z,18.86
2018-07-10T19:04:57.272Z,18.71
2018-07-10T19:06:55.096Z,18.54
2018-07-10T19:10:52.429Z,18.02
2018-07-10T19:14:42.968Z,17.81
2018-07-10T19:15:35.596Z,17.75
2018-07-10T19:17:30.058Z,17.59
2018-07-10T19:20:25.285Z,17.52
2018-07-10T19:21:22.977Z,17.68
2018-07-10T19:23:21.514Z,17.65
2018-07-10T19:24:16.157Z,17.69
2018-07-10T19:26:26.526Z,17.65
2018-07-10T19:27:24.560Z,17.65
2018-07-10T19:29:17.839Z,17.59
2018-07-10T19:30:18.330Z,17.63
2018-07-10T19:32:12.081Z,17.72
2018-07-10T19:33:11.908Z,17.63
2018-07-10T19:35:04.395Z,17.63
2018-07-10T19:36:05.129Z,17.68
2018-07-10T19:37:59.209Z,17.66
2018-07-10T19:38:57.832Z,17.62
2018-07-10T19:40:53.316Z,17.56
2018-07-10T19:41:53.487Z,17.54
2018-07-10T19:44:02.556Z,17.53
2018-07-10T19:45:00.865Z,17.56
2018-07-10T19:47:07.023Z,17.46
2018-07-10T19:48:06.840Z,17.47
2018-07-10T19:50:01.200Z,17.54
2018-07-10T19:52:55.565Z,17.50
2018-07-10T19:53:54.578Z,17.47
2018-07-10T19:55:48.365Z,17.45
2018-07-10T19:56:46.664Z,17.47
2018-07-10T20:01:44.439Z,17.39
2018-07-10T20:02:40.445Z,17.39
2018-07-10T20:05:26.446Z,17.39
2018-07-10T20:06:25.505Z,17.35
2018-07-10T20:08:20.652Z,17.37
2018-07-10T20:09:20.170Z,17.39
2018-07-10T20:11:13.093Z,17.39
2018-07-10T20:12:11.977Z,17.38
2018-07-10T20:14:04.811Z,17.37
2018-07-10T20:15:05.785Z,17.34
2018-07-10T20:16:58.356Z,17.31
2018-07-10T20:17:57.784Z,17.28
2018-07-10T20:19:53.541Z,17.19
2018-07-10T20:20:52.351Z,17.22
2018-07-10T20:22:45.814Z,17.02
2018-07-10T20:23:44.923Z,17.12
2018-07-10T20:25:40.988Z,17.01
2018-07-10T20:26:38.782Z,16.95
2018-07-10T20:28:35.216Z,16.90
2018-07-10T20:29:33.316Z,16.82
2018-07-10T20:32:18.615Z,16.90
2018-07-10T20:33:17.689Z,16.88
2018-07-10T20:35:10.736Z,16.91
2018-07-10T20:36:09.742Z,16.95
2018-07-10T20:38:05.125Z,16.88
2018-07-10T20:39:04.121Z,16.84
2018-07-10T20:40:58.850Z,16.76
2018-07-10T20:41:57.275Z,16.73
2018-07-10T20:43:52.644Z,16.80
2018-07-10T20:44:53.042Z,16.69
2018-07-10T20:46:45.253Z,16.65
2018-07-10T20:47:45.259Z,16.61
2018-07-10T20:49:40.152Z,16.64
2018-07-10T20:50:40.050Z,16.51
2018-07-10T20:52:33.942Z,16.51
2018-07-10T20:53:31.540Z,16.43
2018-07-10T20:55:26.201Z,16.52
2018-07-10T20:56:25.962Z,16.44
2018-07-10T20:58:19.360Z,16.54
2018-07-10T20:59:19.975Z,16.44
2018-07-10T21:01:12.191Z,16.59
2018-07-10T21:02:12.054Z,16.51
2018-07-10T21:04:05.403Z,16.62
2018-07-10T21:05:04.663Z,16.55
2018-07-10T21:06:58.350Z,16.58
2018-07-10T21:07:58.327Z,16.69
2018-07-10T21:09:51.277Z,16.65
2018-07-10T21:10:51.221Z,16.62
2018-07-10T21:12:45.150Z,16.64
2018-07-10T21:13:45.108Z,16.67
2018-07-10T21:15:39.572Z,16.70
2018-07-10T21:16:39.140Z,16.62
2018-07-10T21:18:33.129Z,16.61
2018-07-10T21:19:32.969Z,16.58
2018-07-10T21:21:25.448Z,16.65
2018-07-10T21:22:25.406Z,16.61
2018-07-10T21:24:18.336Z,16.62
2018-07-10T21:25:18.241Z,16.72
2018-07-10T21:27:11.355Z,16.74
2018-07-10T21:28:11.123Z,16.72
2018-07-10T21:30:05.388Z,16.72
2018-07-10T21:31:04.486Z,16.69
2018-07-10T21:32:58.075Z,16.69
2018-07-10T21:33:57.919Z,16.70
2018-07-10T21:35:51.320Z,16.73
2018-07-10T21:36:51.258Z,16.73
2018-07-10T21:38:44.726Z,16.69
2018-07-10T21:39:44.628Z,16.67
2018-07-10T21:41:37.536Z,16.70
2018-07-10T21:42:37.521Z,16.67
2018-07-10T21:44:30.883Z,16.73
2018-07-10T21:45:30.861Z,16.72
2018-07-10T21:47:24.292Z,16.73
2018-07-10T21:48:24.300Z,16.76
2018-07-10T21:50:17.672Z,16.76
2018-07-10T21:51:17.605Z,16.76
2018-07-10T21:53:11.051Z,16.87
2018-07-10T21:54:10.749Z,16.83
2018-07-10T21:56:03.975Z,16.91
2018-07-10T21:57:03.630Z,16.90
2018-07-10T21:58:57.078Z,16.83
2018-07-10T21:59:57.014Z,16.98
2018-07-10T22:01:49.988Z,16.98
2018-07-10T22:02:49.957Z,17.01
2018-07-10T22:04:42.883Z,16.98
2018-07-10T22:05:42.855Z,17.02
2018-07-10T22:07:36.044Z,16.99
2018-07-10T22:08:35.733Z,16.95
2018-07-10T22:10:28.993Z,16.97
2018-07-10T22:11:28.967Z,17.01
2018-07-10T22:13:21.990Z,16.98
2018-07-10T22:14:21.939Z,16.98
2018-07-10T22:16:15.645Z,16.97
2018-07-10T22:17:15.604Z,16.92
2018-07-10T22:19:08.637Z,16.74
2018-07-10T22:20:08.623Z,16.79
2018-07-10T22:22:02.065Z,16.80
2018-07-10T22:23:01.997Z,16.67
2018-07-10T22:24:56.437Z,16.69
2018-07-10T22:25:55.067Z,16.70
2018-07-10T22:27:48.503Z,16.62
2018-07-10T22:28:48.405Z,16.57
2018-07-10T22:30:42.137Z,16.58
2018-07-10T22:31:41.846Z,16.42
2018-07-10T22:33:35.789Z,16.54
2018-07-10T22:34:35.149Z,16.51
2018-07-10T22:36:28.838Z,16.43
2018-07-10T22:37:28.904Z,16.39
2018-07-10T22:39:22.306Z,16.36
2018-07-10T22:40:22.214Z,16.36
2018-07-10T22:42:15.701Z,16.47
2018-07-10T22:43:15.084Z,16.39
2018-07-10T22:45:08.192Z,16.32
2018-07-10T22:46:08.156Z,16.36
2018-07-10T22:48:01.403Z,16.36
2018-07-10T22:49:01.359Z,16.36
2018-07-10T22:50:54.334Z,16.42
2018-07-10T22:51:54.306Z,16.37
2018-07-10T22:53:47.228Z,16.37
2018-07-10T22:54:46.873Z,16.42
2018-07-10T22:56:41.175Z,16.40
2018-07-10T22:57:40.580Z,16.42
2018-07-10T22:59:33.930Z,16.39
2018-07-10T23:00:33.608Z,16.40
2018-07-10T23:02:27.277Z,16.32
2018-07-10T23:03:27.252Z,16.33
2018-07-10T23:05:20.177Z,16.33
2018-07-10T23:06:20.122Z,16.17
2018-07-10T23:08:13.546Z,16.26
2018-07-10T23:09:13.442Z,16.26
2018-07-10T23:11:06.070Z,16.24
2018-07-10T23:12:06.077Z,16.28
2018-07-10T23:13:59.322Z,16.25
2018-07-10T23:14:59.254Z,16.33
2018-07-10T23:16:52.408Z,16.36
2018-07-10T23:17:52.302Z,16.32
2018-07-10T23:19:45.610Z,16.24
2018-07-10T23:20:45.179Z,16.25
2018-07-10T23:22:38.860Z,16.17
2018-07-10T23:23:38.571Z,16.10
2018-07-10T23:25:31.939Z,16.05
2018-07-10T23:26:31.931Z,16.02
2018-07-10T23:28:24.822Z,16.00
2018-07-10T23:29:24.824Z,15.99
2018-07-10T23:31:18.580Z,15.83
2018-07-10T23:32:18.481Z,15.84
2018-07-10T23:34:11.451Z,15.85
2018-07-10T23:35:11.072Z,15.85
2018-07-10T23:37:04.776Z,15.80
2018-07-10T23:38:04.428Z,15.77
2018-07-10T23:39:57.862Z,15.72
2018-07-10T23:40:57.773Z,15.70
2018-07-10T23:42:51.427Z,15.76
2018-07-10T23:43:51.729Z,15.72
2018-07-10T23:45:44.887Z,15.76
2018-07-10T23:46:44.870Z,15.72
2018-07-10T23:48:37.924Z,15.73
2018-07-10T23:49:37.856Z,15.65
2018-07-10T23:51:31.220Z,15.66
2018-07-10T23:52:30.885Z,15.54
2018-07-10T23:54:23.825Z,15.51
2018-07-10T23:55:24.052Z,15.50
2018-07-10T23:57:16.957Z,15.54
2018-07-10T23:58:16.907Z,15.48
